sensor_id;sensor_type;location;lat;lon;timestamp;P1;durP1;ratioP1;P2;durP2;ratioP2
66603;SDS011;53460;39.612;8.822;2022-12-20T00:01:51;6.07;;;1.92;;
66603;SDS011;53460;39.612;8.822;2022-12-20T00:04:17;3.08;;;2.20;;
66603;SDS011;53460;39.612;8.822;2022-12-20T00:06:42;1.80;;;1.67;;
66603;SDS011;53460;39.612;8.822;2022-12-20T00:09:08;3.33;;;1.92;;
66603;SDS011;53460;39.612;8.822;2022-12-20T00:11:34;3.22;;;1.80;;
66603;SDS011;53460;39.612;8.822;2022-12-20T00:13:59;2.50;;;2.30;;
66603;SDS011;53460;39.612;8.822;2022-12-20T00:16:26;4.88;;;2.55;;
66603;SDS011;53460;39.612;8.822;2022-12-20T00:18:56;3.42;;;2.38;;
66603;SDS011;53460;39.612;8.822;2022-12-20T00:21:22;5.47;;;4.05;;
66603;SDS011;53460;39.612;8.822;2022-12-20T00:23:47;3.13;;;2.83;;
66603;SDS011;53460;39.612;8.822;2022-12-20T00:26:17;3.45;;;2.65;;
66603;SDS011;53460;39.612;8.822;2022-12-20T00:28:43;3.70;;;1.75;;
66603;SDS011;53460;39.612;8.822;2022-12-20T00:31:10;2.70;;;1.52;;
66603;SDS011;53460;39.612;8.822;2022-12-20T00:33:36;2.42;;;1.80;;
66603;SDS011;53460;39.612;8.822;2022-12-20T00:36:03;3.30;;;1.75;;
66603;SDS011;53460;39.612;8.822;2022-12-20T00:38:29;3.70;;;1.60;;
66603;SDS011;53460;39.612;8.822;2022-12-20T00:41:13;6.20;;;2.30;;
66603;SDS011;53460;39.612;8.822;2022-12-20T00:43:40;2.92;;;1.50;;
66603;SDS011;53460;39.612;8.822;2022-12-20T00:46:06;4.45;;;1.90;;
66603;SDS011;53460;39.612;8.822;2022-12-20T00:48:31;4.55;;;1.90;;
66603;SDS011;53460;39.612;8.822;2022-12-20T00:50:58;3.53;;;2.15;;
66603;SDS011;53460;39.612;8.822;2022-12-20T00:53:23;6.90;;;4.53;;
66603;SDS011;53460;39.612;8.822;2022-12-20T00:55:49;6.22;;;4.07;;
66603;SDS011;53460;39.612;8.822;2022-12-20T00:58:14;4.72;;;3.22;;
66603;SDS011;53460;39.612;8.822;2022-12-20T01:00:40;2.95;;;2.65;;
66603;SDS011;53460;39.612;8.822;2022-12-20T01:03:06;5.07;;;3.35;;
66603;SDS011;53460;39.612;8.822;2022-12-20T01:05:31;5.18;;;3.80;;
66603;SDS011;53460;39.612;8.822;2022-12-20T01:07:57;2.45;;;2.25;;
66603;SDS011;53460;39.612;8.822;2022-12-20T01:10:23;4.28;;;2.50;;
66603;SDS011;53460;39.612;8.822;2022-12-20T01:12:48;3.13;;;2.75;;
66603;SDS011;53460;39.612;8.822;2022-12-20T01:15:14;3.17;;;2.30;;
66603;SDS011;53460;39.612;8.822;2022-12-20T01:17:39;2.40;;;2.20;;
66603;SDS011;53460;39.612;8.822;2022-12-20T01:20:05;2.47;;;2.03;;
66603;SDS011;53460;39.612;8.822;2022-12-20T01:22:31;3.25;;;2.05;;
66603;SDS011;53460;39.612;8.822;2022-12-20T01:24:57;5.20;;;2.08;;
66603;SDS011;53460;39.612;8.822;2022-12-20T01:27:22;2.17;;;1.77;;
66603;SDS011;53460;39.612;8.822;2022-12-20T01:29:48;3.25;;;1.83;;
66603;SDS011;53460;39.612;8.822;2022-12-20T01:32:13;2.92;;;2.10;;
66603;SDS011;53460;39.612;8.822;2022-12-20T01:34:39;3.03;;;1.58;;
66603;SDS011;53460;39.612;8.822;2022-12-20T01:37:04;1.88;;;1.70;;
66603;SDS011;53460;39.612;8.822;2022-12-20T01:39:30;3.58;;;1.60;;
66603;SDS011;53460;39.612;8.822;2022-12-20T01:41:55;3.70;;;1.40;;
66603;SDS011;53460;39.612;8.822;2022-12-20T01:46:47;2.30;;;2.10;;
66603;SDS011;53460;39.612;8.822;2022-12-20T01:49:15;8.88;;;6.05;;
66603;SDS011;53460;39.612;8.822;2022-12-20T01:52:03;5.57;;;3.53;;
66603;SDS011;53460;39.612;8.822;2022-12-20T01:54:34;3.55;;;2.70;;
66603;SDS011;53460;39.612;8.822;2022-12-20T01:57:01;4.05;;;2.33;;
66603;SDS011;53460;39.612;8.822;2022-12-20T01:59:28;2.17;;;1.98;;
66603;SDS011;53460;39.612;8.822;2022-12-20T02:01:55;2.47;;;2.10;;
66603;SDS011;53460;39.612;8.822;2022-12-20T02:04:22;4.53;;;2.50;;
66603;SDS011;53460;39.612;8.822;2022-12-20T02:06:47;3.33;;;2.15;;
66603;SDS011;53460;39.612;8.822;2022-12-20T02:09:13;4.70;;;2.90;;
66603;SDS011;53460;39.612;8.822;2022-12-20T02:12:02;4.45;;;3.45;;
66603;SDS011;53460;39.612;8.822;2022-12-20T02:17:43;3.35;;;3.05;;
66603;SDS011;53460;39.612;8.822;2022-12-20T02:30:31;5.20;;;3.33;;
66603;SDS011;53460;39.612;8.822;2022-12-20T02:35:25;2.67;;;2.28;;
66603;SDS011;53460;39.612;8.822;2022-12-20T02:37:52;5.00;;;2.20;;
66603;SDS011;53460;39.612;8.822;2022-12-20T02:40:19;2.33;;;2.13;;
66603;SDS011;53460;39.612;8.822;2022-12-20T02:42:47;2.65;;;2.05;;
66603;SDS011;53460;39.612;8.822;2022-12-20T02:45:14;2.72;;;2.25;;
66603;SDS011;53460;39.612;8.822;2022-12-20T02:50:39;6.20;;;2.65;;
66603;SDS011;53460;39.612;8.822;2022-12-20T02:53:06;2.60;;;2.08;;
66603;SDS011;53460;39.612;8.822;2022-12-20T02:55:35;4.63;;;2.15;;
66603;SDS011;53460;39.612;8.822;2022-12-20T02:58:09;4.80;;;2.97;;
66603;SDS011;53460;39.612;8.822;2022-12-20T03:03:02;3.17;;;2.85;;
66603;SDS011;53460;39.612;8.822;2022-12-20T03:05:46;4.75;;;3.30;;
66603;SDS011;53460;39.612;8.822;2022-12-20T03:08:16;3.40;;;2.88;;
66603;SDS011;53460;39.612;8.822;2022-12-20T03:10:41;3.75;;;2.80;;
66603;SDS011;53460;39.612;8.822;2022-12-20T03:13:07;6.68;;;2.65;;
66603;SDS011;53460;39.612;8.822;2022-12-20T03:15:34;3.38;;;2.28;;
66603;SDS011;53460;39.612;8.822;2022-12-20T03:18:01;5.63;;;2.20;;
66603;SDS011;53460;39.612;8.822;2022-12-20T03:20:27;3.13;;;2.03;;
66603;SDS011;53460;39.612;8.822;2022-12-20T03:22:52;4.28;;;2.22;;
66603;SDS011;53460;39.612;8.822;2022-12-20T03:25:18;2.55;;;2.35;;
66603;SDS011;53460;39.612;8.822;2022-12-20T03:27:44;3.28;;;2.78;;
66603;SDS011;53460;39.612;8.822;2022-12-20T03:30:10;4.13;;;2.40;;
66603;SDS011;53460;39.612;8.822;2022-12-20T03:32:36;3.50;;;2.17;;
66603;SDS011;53460;39.612;8.822;2022-12-20T03:35:02;3.55;;;2.28;;
66603;SDS011;53460;39.612;8.822;2022-12-20T03:37:33;2.80;;;2.60;;
66603;SDS011;53460;39.612;8.822;2022-12-20T03:40:02;2.90;;;2.50;;
66603;SDS011;53460;39.612;8.822;2022-12-20T03:42:28;3.22;;;2.42;;
66603;SDS011;53460;39.612;8.822;2022-12-20T03:44:53;3.47;;;2.42;;
66603;SDS011;53460;39.612;8.822;2022-12-20T03:47:18;4.38;;;2.70;;
66603;SDS011;53460;39.612;8.822;2022-12-20T03:49:45;4.55;;;2.70;;
66603;SDS011;53460;39.612;8.822;2022-12-20T03:52:11;3.42;;;2.47;;
66603;SDS011;53460;39.612;8.822;2022-12-20T03:54:36;2.90;;;2.38;;
66603;SDS011;53460;39.612;8.822;2022-12-20T03:57:15;4.75;;;2.28;;
66603;SDS011;53460;39.612;8.822;2022-12-20T03:59:43;4.57;;;2.65;;
66603;SDS011;53460;39.612;8.822;2022-12-20T04:02:12;1.98;;;1.55;;
66603;SDS011;53460;39.612;8.822;2022-12-20T04:04:37;2.55;;;1.70;;
66603;SDS011;53460;39.612;8.822;2022-12-20T04:07:03;2.78;;;1.27;;
66603;SDS011;53460;39.612;8.822;2022-12-20T04:09:29;3.15;;;1.58;;
66603;SDS011;53460;39.612;8.822;2022-12-20T04:12:02;3.25;;;1.40;;
66603;SDS011;53460;39.612;8.822;2022-12-20T04:14:30;1.33;;;1.20;;
66603;SDS011;53460;39.612;8.822;2022-12-20T04:16:55;1.35;;;1.20;;
66603;SDS011;53460;39.612;8.822;2022-12-20T04:19:21;2.80;;;1.20;;
66603;SDS011;53460;39.612;8.822;2022-12-20T04:21:47;1.80;;;1.42;;
66603;SDS011;53460;39.612;8.822;2022-12-20T04:24:14;1.42;;;1.15;;
66603;SDS011;53460;39.612;8.822;2022-12-20T04:26:44;2.92;;;1.40;;
66603;SDS011;53460;39.612;8.822;2022-12-20T04:29:11;2.20;;;1.33;;
66603;SDS011;53460;39.612;8.822;2022-12-20T04:31:37;2.65;;;1.30;;
66603;SDS011;53460;39.612;8.822;2022-12-20T04:34:03;1.90;;;1.30;;
66603;SDS011;53460;39.612;8.822;2022-12-20T04:36:31;2.00;;;1.25;;
66603;SDS011;53460;39.612;8.822;2022-12-20T04:38:59;1.73;;;1.40;;
66603;SDS011;53460;39.612;8.822;2022-12-20T04:41:25;2.92;;;1.88;;
66603;SDS011;53460;39.612;8.822;2022-12-20T04:43:56;2.75;;;1.90;;
66603;SDS011;53460;39.612;8.822;2022-12-20T04:46:26;3.38;;;1.67;;
66603;SDS011;53460;39.612;8.822;2022-12-20T04:48:54;1.63;;;1.50;;
66603;SDS011;53460;39.612;8.822;2022-12-20T04:51:20;4.35;;;2.22;;
66603;SDS011;53460;39.612;8.822;2022-12-20T04:53:45;2.60;;;1.70;;
66603;SDS011;53460;39.612;8.822;2022-12-20T04:56:40;1.98;;;1.52;;
66603;SDS011;53460;39.612;8.822;2022-12-20T04:59:08;2.25;;;1.60;;
66603;SDS011;53460;39.612;8.822;2022-12-20T05:01:37;2.05;;;1.80;;
66603;SDS011;53460;39.612;8.822;2022-12-20T05:04:03;4.72;;;2.10;;
66603;SDS011;53460;39.612;8.822;2022-12-20T05:06:32;4.10;;;2.97;;
66603;SDS011;53460;39.612;8.822;2022-12-20T05:08:58;4.22;;;3.80;;
66603;SDS011;53460;39.612;8.822;2022-12-20T05:11:23;3.85;;;3.55;;
66603;SDS011;53460;39.612;8.822;2022-12-20T05:13:49;3.70;;;3.22;;
66603;SDS011;53460;39.612;8.822;2022-12-20T05:16:17;3.47;;;3.17;;
66603;SDS011;53460;39.612;8.822;2022-12-20T05:18:44;3.17;;;2.97;;
66603;SDS011;53460;39.612;8.822;2022-12-20T05:21:09;3.22;;;2.92;;
66603;SDS011;53460;39.612;8.822;2022-12-20T05:24:13;7.32;;;3.40;;
66603;SDS011;53460;39.612;8.822;2022-12-20T05:27:11;3.05;;;2.63;;
66603;SDS011;53460;39.612;8.822;2022-12-20T05:29:37;3.03;;;2.83;;
66603;SDS011;53460;39.612;8.822;2022-12-20T05:32:02;3.67;;;3.35;;
66603;SDS011;53460;39.612;8.822;2022-12-20T05:34:28;3.13;;;2.92;;
66603;SDS011;53460;39.612;8.822;2022-12-20T05:36:54;3.50;;;3.20;;
66603;SDS011;53460;39.612;8.822;2022-12-20T05:39:22;3.30;;;3.00;;
66603;SDS011;53460;39.612;8.822;2022-12-20T05:41:50;3.47;;;3.20;;
66603;SDS011;53460;39.612;8.822;2022-12-20T05:44:16;3.80;;;3.05;;
66603;SDS011;53460;39.612;8.822;2022-12-20T05:46:45;3.75;;;3.42;;
66603;SDS011;53460;39.612;8.822;2022-12-20T05:49:16;3.90;;;3.60;;
66603;SDS011;53460;39.612;8.822;2022-12-20T05:51:43;5.85;;;3.50;;
66603;SDS011;53460;39.612;8.822;2022-12-20T05:54:34;4.45;;;4.15;;
66603;SDS011;53460;39.612;8.822;2022-12-20T05:57:10;7.57;;;6.88;;
66603;SDS011;53460;39.612;8.822;2022-12-20T05:59:38;22.38;;;19.00;;
66603;SDS011;53460;39.612;8.822;2022-12-20T06:02:06;20.25;;;18.23;;
66603;SDS011;53460;39.612;8.822;2022-12-20T06:04:33;42.08;;;37.63;;
66603;SDS011;53460;39.612;8.822;2022-12-20T06:07:02;8.60;;;5.88;;
66603;SDS011;53460;39.612;8.822;2022-12-20T06:09:29;7.32;;;6.68;;
66603;SDS011;53460;39.612;8.822;2022-12-20T06:12:01;5.20;;;4.60;;
66603;SDS011;53460;39.612;8.822;2022-12-20T06:14:28;9.73;;;8.23;;
66603;SDS011;53460;39.612;8.822;2022-12-20T06:16:54;10.02;;;8.82;;
66603;SDS011;53460;39.612;8.822;2022-12-20T06:19:20;16.13;;;11.88;;
66603;SDS011;53460;39.612;8.822;2022-12-20T06:21:46;7.15;;;6.43;;
66603;SDS011;53460;39.612;8.822;2022-12-20T06:24:14;6.30;;;5.80;;
66603;SDS011;53460;39.612;8.822;2022-12-20T06:26:43;5.70;;;3.92;;
66603;SDS011;53460;39.612;8.822;2022-12-20T06:29:10;4.80;;;4.40;;
66603;SDS011;53460;39.612;8.822;2022-12-20T06:31:48;6.40;;;4.18;;
66603;SDS011;53460;39.612;8.822;2022-12-20T06:34:14;4.72;;;2.95;;
66603;SDS011;53460;39.612;8.822;2022-12-20T06:36:42;4.82;;;3.30;;
66603;SDS011;53460;39.612;8.822;2022-12-20T06:39:14;3.30;;;2.70;;
66603;SDS011;53460;39.612;8.822;2022-12-20T06:41:48;3.38;;;2.80;;
66603;SDS011;53460;39.612;8.822;2022-12-20T06:44:14;7.13;;;6.47;;
66603;SDS011;53460;39.612;8.822;2022-12-20T06:46:39;12.30;;;11.20;;
66603;SDS011;53460;39.612;8.822;2022-12-20T06:49:05;3.63;;;3.30;;
66603;SDS011;53460;39.612;8.822;2022-12-20T06:51:31;9.18;;;4.25;;
66603;SDS011;53460;39.612;8.822;2022-12-20T06:53:57;9.02;;;4.25;;
66603;SDS011;53460;39.612;8.822;2022-12-20T06:56:28;5.00;;;4.10;;
66603;SDS011;53460;39.612;8.822;2022-12-20T06:58:53;7.82;;;5.53;;
66603;SDS011;53460;39.612;8.822;2022-12-20T07:01:21;5.20;;;4.70;;
66603;SDS011;53460;39.612;8.822;2022-12-20T07:03:47;4.95;;;4.50;;
66603;SDS011;53460;39.612;8.822;2022-12-20T07:06:12;7.07;;;4.38;;
66603;SDS011;53460;39.612;8.822;2022-12-20T07:08:38;9.45;;;6.53;;
66603;SDS011;53460;39.612;8.822;2022-12-20T07:11:04;11.82;;;5.90;;
66603;SDS011;53460;39.612;8.822;2022-12-20T07:13:30;14.75;;;7.80;;
66603;SDS011;53460;39.612;8.822;2022-12-20T07:15:56;11.18;;;6.53;;
66603;SDS011;53460;39.612;8.822;2022-12-20T07:18:22;12.30;;;10.77;;
66603;SDS011;53460;39.612;8.822;2022-12-20T07:20:47;31.70;;;21.08;;
66603;SDS011;53460;39.612;8.822;2022-12-20T07:23:13;23.90;;;17.23;;
66603;SDS011;53460;39.612;8.822;2022-12-20T07:25:38;15.20;;;12.07;;
66603;SDS011;53460;39.612;8.822;2022-12-20T07:28:04;7.80;;;7.10;;
66603;SDS011;53460;39.612;8.822;2022-12-20T07:30:29;10.20;;;9.27;;
66603;SDS011;53460;39.612;8.822;2022-12-20T07:32:55;12.55;;;11.00;;
66603;SDS011;53460;39.612;8.822;2022-12-20T07:35:20;5.53;;;5.07;;
66603;SDS011;53460;39.612;8.822;2022-12-20T07:37:46;6.68;;;6.07;;
66603;SDS011;53460;39.612;8.822;2022-12-20T07:40:11;6.82;;;4.68;;
66603;SDS011;53460;39.612;8.822;2022-12-20T07:42:37;6.63;;;5.93;;
66603;SDS011;53460;39.612;8.822;2022-12-20T07:45:04;12.35;;;8.75;;
66603;SDS011;53460;39.612;8.822;2022-12-20T07:47:29;18.60;;;13.95;;
66603;SDS011;53460;39.612;8.822;2022-12-20T07:49:55;12.98;;;9.85;;
66603;SDS011;53460;39.612;8.822;2022-12-20T07:52:20;12.98;;;9.95;;
66603;SDS011;53460;39.612;8.822;2022-12-20T07:54:51;8.05;;;6.32;;
66603;SDS011;53460;39.612;8.822;2022-12-20T07:57:19;10.85;;;9.60;;
66603;SDS011;53460;39.612;8.822;2022-12-20T07:59:48;16.85;;;12.80;;
66603;SDS011;53460;39.612;8.822;2022-12-20T08:02:16;5.22;;;4.72;;
66603;SDS011;53460;39.612;8.822;2022-12-20T08:04:43;5.22;;;3.65;;
66603;SDS011;53460;39.612;8.822;2022-12-20T08:07:11;8.82;;;3.58;;
66603;SDS011;53460;39.612;8.822;2022-12-20T08:09:38;11.13;;;5.20;;
66603;SDS011;53460;39.612;8.822;2022-12-20T08:12:05;15.93;;;11.82;;
66603;SDS011;53460;39.612;8.822;2022-12-20T08:14:32;6.75;;;6.07;;
66603;SDS011;53460;39.612;8.822;2022-12-20T08:16:58;6.93;;;4.10;;
66603;SDS011;53460;39.612;8.822;2022-12-20T08:19:24;9.30;;;5.97;;
66603;SDS011;53460;39.612;8.822;2022-12-20T08:21:50;9.02;;;7.47;;
66603;SDS011;53460;39.612;8.822;2022-12-20T08:24:15;9.13;;;8.23;;
66603;SDS011;53460;39.612;8.822;2022-12-20T08:26:41;10.07;;;8.80;;
66603;SDS011;53460;39.612;8.822;2022-12-20T08:29:06;12.77;;;11.15;;
66603;SDS011;53460;39.612;8.822;2022-12-20T08:31:36;12.13;;;10.88;;
66603;SDS011;53460;39.612;8.822;2022-12-20T08:34:01;12.57;;;11.27;;
66603;SDS011;53460;39.612;8.822;2022-12-20T08:36:27;11.60;;;10.50;;
66603;SDS011;53460;39.612;8.822;2022-12-20T08:38:52;10.38;;;8.45;;
66603;SDS011;53460;39.612;8.822;2022-12-20T08:41:18;7.28;;;6.47;;
66603;SDS011;53460;39.612;8.822;2022-12-20T08:43:43;6.85;;;4.07;;
66603;SDS011;53460;39.612;8.822;2022-12-20T08:46:09;2.95;;;1.63;;
66603;SDS011;53460;39.612;8.822;2022-12-20T08:48:36;1.85;;;1.10;;
66603;SDS011;53460;39.612;8.822;2022-12-20T08:51:02;1.23;;;1.10;;
66603;SDS011;53460;39.612;8.822;2022-12-20T08:53:28;4.13;;;3.42;;
66603;SDS011;53460;39.612;8.822;2022-12-20T08:56:02;3.40;;;2.78;;
66603;SDS011;53460;39.612;8.822;2022-12-20T08:58:27;3.05;;;1.90;;
66603;SDS011;53460;39.612;8.822;2022-12-20T09:00:53;3.80;;;2.28;;
66603;SDS011;53460;39.612;8.822;2022-12-20T09:03:18;2.05;;;1.83;;
66603;SDS011;53460;39.612;8.822;2022-12-20T09:05:45;3.15;;;2.30;;
66603;SDS011;53460;39.612;8.822;2022-12-20T09:08:13;3.10;;;2.30;;
66603;SDS011;53460;39.612;8.822;2022-12-20T09:10:39;1.80;;;1.70;;
66603;SDS011;53460;39.612;8.822;2022-12-20T09:13:04;1.63;;;1.10;;
66603;SDS011;53460;39.612;8.822;2022-12-20T09:15:30;2.45;;;1.20;;
66603;SDS011;53460;39.612;8.822;2022-12-20T09:17:56;1.65;;;1.13;;
66603;SDS011;53460;39.612;8.822;2022-12-20T09:20:22;1.85;;;1.02;;
66603;SDS011;53460;39.612;8.822;2022-12-20T09:22:47;2.25;;;1.38;;
66603;SDS011;53460;39.612;8.822;2022-12-20T09:25:13;1.88;;;0.98;;
66603;SDS011;53460;39.612;8.822;2022-12-20T09:27:38;2.97;;;1.65;;
66603;SDS011;53460;39.612;8.822;2022-12-20T09:30:04;3.67;;;2.95;;
66603;SDS011;53460;39.612;8.822;2022-12-20T09:32:29;2.75;;;1.45;;
66603;SDS011;53460;39.612;8.822;2022-12-20T09:34:55;1.92;;;1.08;;
66603;SDS011;53460;39.612;8.822;2022-12-20T09:37:20;2.25;;;2.05;;
66603;SDS011;53460;39.612;8.822;2022-12-20T09:39:47;4.40;;;2.78;;
66603;SDS011;53460;39.612;8.822;2022-12-20T09:42:13;3.38;;;2.17;;
66603;SDS011;53460;39.612;8.822;2022-12-20T09:44:39;3.35;;;3.05;;
66603;SDS011;53460;39.612;8.822;2022-12-20T09:47:06;2.38;;;1.88;;
66603;SDS011;53460;39.612;8.822;2022-12-20T09:49:38;1.65;;;1.42;;
66603;SDS011;53460;39.612;8.822;2022-12-20T09:54:56;2.95;;;2.38;;
66603;SDS011;53460;39.612;8.822;2022-12-20T09:59:46;2.53;;;1.65;;
66603;SDS011;53460;39.612;8.822;2022-12-20T10:02:13;2.13;;;1.55;;
66603;SDS011;53460;39.612;8.822;2022-12-20T10:04:40;2.83;;;1.50;;
66603;SDS011;53460;39.612;8.822;2022-12-20T10:17:03;2.70;;;2.10;;
66603;SDS011;53460;39.612;8.822;2022-12-20T10:19:42;3.33;;;1.50;;
66603;SDS011;53460;39.612;8.822;2022-12-20T10:24:37;1.63;;;1.40;;
66603;SDS011;53460;39.612;8.822;2022-12-20T10:27:15;2.40;;;1.20;;
66603;SDS011;53460;39.612;8.822;2022-12-20T10:29:41;2.60;;;1.23;;
66603;SDS011;53460;39.612;8.822;2022-12-20T10:32:28;1.15;;;0.82;;
66603;SDS011;53460;39.612;8.822;2022-12-20T10:34:58;1.92;;;1.33;;
66603;SDS011;53460;39.612;8.822;2022-12-20T10:37:26;1.08;;;0.80;;
66603;SDS011;53460;39.612;8.822;2022-12-20T10:39:52;1.60;;;1.25;;
66603;SDS011;53460;39.612;8.822;2022-12-20T10:42:24;1.80;;;1.20;;
66603;SDS011;53460;39.612;8.822;2022-12-20T10:44:50;4.50;;;2.22;;
66603;SDS011;53460;39.612;8.822;2022-12-20T10:47:50;2.53;;;1.27;;
66603;SDS011;53460;39.612;8.822;2022-12-20T10:50:18;1.37;;;0.87;;
66603;SDS011;53460;39.612;8.822;2022-12-20T10:52:44;2.78;;;1.35;;
66603;SDS011;53460;39.612;8.822;2022-12-20T10:55:43;1.50;;;1.02;;
66603;SDS011;53460;39.612;8.822;2022-12-20T11:00:40;4.10;;;2.10;;
66603;SDS011;53460;39.612;8.822;2022-12-20T11:05:33;3.53;;;1.30;;
66603;SDS011;53460;39.612;8.822;2022-12-20T11:08:06;2.92;;;1.30;;
66603;SDS011;53460;39.612;8.822;2022-12-20T11:12:58;2.13;;;1.20;;
66603;SDS011;53460;39.612;8.822;2022-12-20T11:15:24;2.85;;;1.67;;
66603;SDS011;53460;39.612;8.822;2022-12-20T11:17:51;3.42;;;1.38;;
66603;SDS011;53460;39.612;8.822;2022-12-20T11:25:27;2.72;;;1.73;;
66603;SDS011;53460;39.612;8.822;2022-12-20T11:30:33;2.60;;;1.00;;
66603;SDS011;53460;39.612;8.822;2022-12-20T11:35:50;5.22;;;2.92;;
66603;SDS011;53460;39.612;8.822;2022-12-20T11:43:33;6.68;;;4.47;;
66603;SDS011;53460;39.612;8.822;2022-12-20T11:55:50;4.35;;;3.30;;
66603;SDS011;53460;39.612;8.822;2022-12-20T12:00:42;14.20;;;10.07;;
66603;SDS011;53460;39.612;8.822;2022-12-20T12:03:14;5.03;;;4.43;;
66603;SDS011;53460;39.612;8.822;2022-12-20T12:05:45;17.42;;;6.28;;
66603;SDS011;53460;39.612;8.822;2022-12-20T12:08:16;3.00;;;2.70;;
66603;SDS011;53460;39.612;8.822;2022-12-20T12:10:46;4.90;;;3.33;;
66603;SDS011;53460;39.612;8.822;2022-12-20T12:13:16;3.63;;;3.28;;
66603;SDS011;53460;39.612;8.822;2022-12-20T12:18:22;3.65;;;3.10;;
66603;SDS011;53460;39.612;8.822;2022-12-20T12:23:28;5.85;;;2.72;;
66603;SDS011;53460;39.612;8.822;2022-12-20T12:25:56;3.13;;;2.67;;
66603;SDS011;53460;39.612;8.822;2022-12-20T12:28:22;8.88;;;6.10;;
66603;SDS011;53460;39.612;8.822;2022-12-20T12:30:51;5.03;;;4.50;;
66603;SDS011;53460;39.612;8.822;2022-12-20T12:33:19;4.20;;;3.28;;
66603;SDS011;53460;39.612;8.822;2022-12-20T12:38:51;4.63;;;2.95;;
66603;SDS011;53460;39.612;8.822;2022-12-20T12:43:46;5.32;;;2.70;;
66603;SDS011;53460;39.612;8.822;2022-12-20T12:46:32;1.88;;;1.67;;
66603;SDS011;53460;39.612;8.822;2022-12-20T12:51:28;3.78;;;2.20;;
66603;SDS011;53460;39.612;8.822;2022-12-20T12:54:03;4.65;;;1.70;;
66603;SDS011;53460;39.612;8.822;2022-12-20T12:56:37;3.75;;;2.05;;
66603;SDS011;53460;39.612;8.822;2022-12-20T13:11:51;4.68;;;3.50;;
66603;SDS011;53460;39.612;8.822;2022-12-20T13:16:42;3.05;;;2.10;;
66603;SDS011;53460;39.612;8.822;2022-12-20T13:21:52;2.75;;;2.50;;
66603;SDS011;53460;39.612;8.822;2022-12-20T13:24:35;5.30;;;3.67;;
66603;SDS011;53460;39.612;8.822;2022-12-20T13:29:50;6.55;;;4.13;;
66603;SDS011;53460;39.612;8.822;2022-12-20T13:35:00;3.00;;;2.38;;
66603;SDS011;53460;39.612;8.822;2022-12-20T13:37:50;3.50;;;3.13;;
66603;SDS011;53460;39.612;8.822;2022-12-20T13:40:18;7.20;;;3.85;;
66603;SDS011;53460;39.612;8.822;2022-12-20T13:42:44;5.30;;;2.08;;
66603;SDS011;53460;39.612;8.822;2022-12-20T13:45:10;3.03;;;2.20;;
66603;SDS011;53460;39.612;8.822;2022-12-20T13:47:45;2.38;;;1.92;;
66603;SDS011;53460;39.612;8.822;2022-12-20T13:50:34;2.13;;;1.35;;
66603;SDS011;53460;39.612;8.822;2022-12-20T13:53:00;6.40;;;5.32;;
66603;SDS011;53460;39.612;8.822;2022-12-20T13:55:36;2.22;;;2.03;;
66603;SDS011;53460;39.612;8.822;2022-12-20T13:58:05;2.38;;;2.05;;
66603;SDS011;53460;39.612;8.822;2022-12-20T14:00:31;3.75;;;2.03;;
66603;SDS011;53460;39.612;8.822;2022-12-20T14:02:58;2.30;;;1.70;;
66603;SDS011;53460;39.612;8.822;2022-12-20T14:05:26;4.70;;;3.45;;
66603;SDS011;53460;39.612;8.822;2022-12-20T14:07:58;3.90;;;1.85;;
66603;SDS011;53460;39.612;8.822;2022-12-20T14:10:25;2.95;;;1.40;;
66603;SDS011;53460;39.612;8.822;2022-12-20T14:12:53;3.67;;;1.77;;
66603;SDS011;53460;39.612;8.822;2022-12-20T14:15:23;2.85;;;1.63;;
66603;SDS011;53460;39.612;8.822;2022-12-20T14:17:49;3.63;;;2.42;;
66603;SDS011;53460;39.612;8.822;2022-12-20T14:20:15;2.70;;;1.85;;
66603;SDS011;53460;39.612;8.822;2022-12-20T14:27:53;1.92;;;1.60;;
66603;SDS011;53460;39.612;8.822;2022-12-20T14:30:24;5.13;;;1.23;;
66603;SDS011;53460;39.612;8.822;2022-12-20T14:32:50;6.95;;;2.17;;
66603;SDS011;53460;39.612;8.822;2022-12-20T14:35:19;2.25;;;1.40;;
66603;SDS011;53460;39.612;8.822;2022-12-20T14:37:51;4.10;;;1.73;;
66603;SDS011;53460;39.612;8.822;2022-12-20T14:40:17;3.17;;;1.42;;
66603;SDS011;53460;39.612;8.822;2022-12-20T14:42:43;2.38;;;1.40;;
66603;SDS011;53460;39.612;8.822;2022-12-20T14:47:35;2.17;;;1.40;;
66603;SDS011;53460;39.612;8.822;2022-12-20T14:50:02;1.92;;;1.30;;
66603;SDS011;53460;39.612;8.822;2022-12-20T14:54:58;2.42;;;2.20;;
66603;SDS011;53460;39.612;8.822;2022-12-20T14:57:25;4.15;;;2.30;;
66603;SDS011;53460;39.612;8.822;2022-12-20T15:00:34;3.50;;;1.48;;
66603;SDS011;53460;39.612;8.822;2022-12-20T15:10:40;3.38;;;1.50;;
66603;SDS011;53460;39.612;8.822;2022-12-20T15:13:13;3.67;;;1.33;;
66603;SDS011;53460;39.612;8.822;2022-12-20T15:18:12;2.35;;;2.08;;
66603;SDS011;53460;39.612;8.822;2022-12-20T15:20:38;2.42;;;2.15;;
66603;SDS011;53460;39.612;8.822;2022-12-20T15:23:04;4.25;;;2.10;;
66603;SDS011;53460;39.612;8.822;2022-12-20T15:25:30;4.13;;;1.67;;
66603;SDS011;53460;39.612;8.822;2022-12-20T15:27:57;2.92;;;1.85;;
66603;SDS011;53460;39.612;8.822;2022-12-20T15:30:23;4.05;;;3.72;;
66603;SDS011;53460;39.612;8.822;2022-12-20T15:32:48;3.15;;;2.03;;
66603;SDS011;53460;39.612;8.822;2022-12-20T15:35:14;2.03;;;1.65;;
66603;SDS011;53460;39.612;8.822;2022-12-20T15:37:40;5.47;;;2.33;;
66603;SDS011;53460;39.612;8.822;2022-12-20T15:40:06;4.50;;;4.10;;
66603;SDS011;53460;39.612;8.822;2022-12-20T15:42:31;3.40;;;2.95;;
66603;SDS011;53460;39.612;8.822;2022-12-20T15:44:57;4.13;;;2.58;;
66603;SDS011;53460;39.612;8.822;2022-12-20T15:47:23;4.85;;;2.97;;
66603;SDS011;53460;39.612;8.822;2022-12-20T15:49:48;4.78;;;3.42;;
66603;SDS011;53460;39.612;8.822;2022-12-20T15:52:21;3.40;;;2.67;;
66603;SDS011;53460;39.612;8.822;2022-12-20T15:54:47;4.68;;;4.07;;
66603;SDS011;53460;39.612;8.822;2022-12-20T15:57:13;6.72;;;5.45;;
66603;SDS011;53460;39.612;8.822;2022-12-20T15:59:39;10.35;;;8.75;;
66603;SDS011;53460;39.612;8.822;2022-12-20T16:04:49;14.43;;;7.75;;
66603;SDS011;53460;39.612;8.822;2022-12-20T16:07:15;21.33;;;18.92;;
66603;SDS011;53460;39.612;8.822;2022-12-20T16:09:40;17.15;;;12.82;;
66603;SDS011;53460;39.612;8.822;2022-12-20T16:12:13;25.20;;;18.52;;
66603;SDS011;53460;39.612;8.822;2022-12-20T16:14:40;37.15;;;26.02;;
66603;SDS011;53460;39.612;8.822;2022-12-20T16:17:08;36.85;;;23.40;;
66603;SDS011;53460;39.612;8.822;2022-12-20T16:19:36;19.17;;;14.48;;
66603;SDS011;53460;39.612;8.822;2022-12-20T16:22:02;19.02;;;14.18;;
66603;SDS011;53460;39.612;8.822;2022-12-20T16:24:28;14.65;;;12.90;;
66603;SDS011;53460;39.612;8.822;2022-12-20T16:26:53;15.63;;;14.13;;
66603;SDS011;53460;39.612;8.822;2022-12-20T16:29:18;15.43;;;13.90;;
66603;SDS011;53460;39.612;8.822;2022-12-20T16:31:44;14.65;;;12.25;;
66603;SDS011;53460;39.612;8.822;2022-12-20T16:34:14;13.65;;;11.82;;
66603;SDS011;53460;39.612;8.822;2022-12-20T16:36:40;14.60;;;12.85;;
66603;SDS011;53460;39.612;8.822;2022-12-20T16:39:06;19.23;;;17.35;;
66603;SDS011;53460;39.612;8.822;2022-12-20T16:41:34;22.20;;;18.38;;
66603;SDS011;53460;39.612;8.822;2022-12-20T16:44:00;20.58;;;18.67;;
66603;SDS011;53460;39.612;8.822;2022-12-20T16:46:27;24.00;;;21.52;;
66603;SDS011;53460;39.612;8.822;2022-12-20T16:48:53;20.95;;;18.95;;
66603;SDS011;53460;39.612;8.822;2022-12-20T16:51:28;24.13;;;21.60;;
66603;SDS011;53460;39.612;8.822;2022-12-20T16:53:55;24.70;;;21.70;;
66603;SDS011;53460;39.612;8.822;2022-12-20T16:56:21;22.95;;;20.63;;
66603;SDS011;53460;39.612;8.822;2022-12-20T16:58:47;162.30;;;75.40;;
66603;SDS011;53460;39.612;8.822;2022-12-20T17:01:15;467.15;;;184.23;;
66603;SDS011;53460;39.612;8.822;2022-12-20T17:03:42;467.40;;;213.20;;
66603;SDS011;53460;39.612;8.822;2022-12-20T17:06:09;576.90;;;338.27;;